Time;durP1;ratioP1;P1;durP2;ratioP2;P2;SDS_P1;SDS_P2;PMS_P1;PMS_P2;Temp;Humidity;BMP_temperature;BMP_pressure;BME280_temperature;BME280_humidity;BME280_pressure;Samples;Min_cycle;Max_cycle;Signal;HPM_P1;HPM_P2
2022/12/21 00:00:15;;;;;;;4.07;3.77;;;9.10;99.90;;;;;;5031216;28;20612;-79
2022/12/21 00:02:40;;;;;;;4.00;3.60;;;9.10;99.90;;;;;;5030956;28;20182;-79
2022/12/21 00:05:07;;;;;;;4.60;3.60;;;9.10;99.90;;;;;;5028551;28;20171;-79
2022/12/21 00:07:33;;;;;;;4.00;3.70;;;9.10;99.90;;;;;;5031054;28;20213;-80
2022/12/21 00:09:59;;;;;;;4.47;4.00;;;9.00;99.90;;;;;;5030810;28;20191;-80
2022/12/21 00:12:24;;;;;;;4.30;3.90;;;9.00;99.90;;;;;;5031792;28;20213;-79
2022/12/21 00:14:50;;;;;;;3.83;3.53;;;9.00;1.00;;;;;;5032110;28;20703;-79
2022/12/21 00:17:16;;;;;;;4.50;4.10;;;9.00;1.00;;;;;;5031666;28;20797;-77
2022/12/21 00:19:43;;;;;;;5.70;4.30;;;9.00;1.00;;;;;;5032065;28;20257;-80
2022/12/21 00:22:09;;;;;;;4.70;3.83;;;8.90;1.00;;;;;;5031352;28;20191;-76
2022/12/21 00:24:34;;;;;;;5.73;4.23;;;8.80;1.00;;;;;;5030458;28;20905;-79
2022/12/21 00:27:00;;;;;;;5.93;4.40;;;8.90;1.00;;;;;;5031641;28;20731;-80
2022/12/21 00:29:26;;;;;;;5.97;4.57;;;8.80;1.00;;;;;;5030763;28;20593;-79
2022/12/21 00:31:53;;;;;;;4.60;4.17;;;8.70;1.00;;;;;;5031499;28;20265;-80
2022/12/21 00:34:19;;;;;;;4.60;4.20;;;8.70;1.00;;;;;;5031352;28;20226;-77
2022/12/21 00:36:46;;;;;;;5.40;4.37;;;8.70;1.00;;;;;;5029867;28;20218;-79
2022/12/21 00:39:12;;;;;;;6.03;4.70;;;8.70;1.00;;;;;;5031711;28;20187;-79
2022/12/21 00:41:38;;;;;;;4.47;4.07;;;8.70;1.00;;;;;;5029737;28;20349;-79
2022/12/21 00:44:04;;;;;;;4.93;4.40;;;8.70;1.00;;;;;;5031676;28;20215;-78
2022/12/21 00:46:32;;;;;;;5.20;4.07;;;8.70;1.00;;;;;;5029545;28;20191;-77
2022/12/21 00:49:00;;;;;;;4.70;4.27;;;8.70;1.00;;;;;;5030934;28;20260;-81
2022/12/21 00:51:27;;;;;;;4.50;4.10;;;8.70;1.00;;;;;;5030439;28;20197;-79
2022/12/21 00:53:55;;;;;;;4.63;4.13;;;8.70;1.00;;;;;;5031283;28;20229;-78
2022/12/21 00:56:21;;;;;;;4.17;3.87;;;8.60;1.00;;;;;;5029465;28;20191;-80
2022/12/21 00:58:48;;;;;;;5.40;4.30;;;8.70;1.00;;;;;;5029456;28;20202;-80
2022/12/21 01:01:17;;;;;;;4.67;4.27;;;8.80;1.00;;;;;;5030135;28;20248;-80
2022/12/21 01:03:43;;;;;;;5.10;4.63;;;8.80;1.00;;;;;;5028875;28;20199;-80
2022/12/21 01:06:13;;;;;;;5.37;4.87;;;8.80;1.00;;;;;;5030332;28;20186;-80
2022/12/21 01:08:39;;;;;;;5.07;4.57;;;8.80;1.00;;;;;;5030111;28;20234;-78
2022/12/21 01:11:04;;;;;;;4.97;4.57;;;8.80;1.00;;;;;;5029761;28;20233;-79
2022/12/21 01:13:31;;;;;;;5.57;5.07;;;8.80;11.20;;;;;;5032259;28;20211;-79
2022/12/21 01:15:57;;;;;;;5.33;4.83;;;8.80;99.90;;;;;;5030541;28;20270;-78
2022/12/21 01:18:23;;;;;;;5.87;5.27;;;8.70;99.90;;;;;;5029992;28;20262;-79
2022/12/21 01:20:51;;;;;;;5.80;5.30;;;8.70;99.90;;;;;;5030151;28;20187;-79
2022/12/21 01:23:18;;;;;;;5.73;5.23;;;8.60;99.90;;;;;;5029965;28;20225;-77
2022/12/21 01:25:45;;;;;;;5.73;5.23;;;8.60;99.90;;;;;;5028036;28;20191;-80
2022/12/21 01:28:11;;;;;;;7.70;5.70;;;8.50;99.90;;;;;;5030244;28;20233;-79
2022/12/21 01:30:38;;;;;;;6.97;6.37;;;8.50;1.00;;;;;;5030762;28;20194;-81
2022/12/21 01:33:05;;;;;;;7.20;6.60;;;8.50;1.00;;;;;;5030214;28;20672;-79
2022/12/21 01:35:31;;;;;;;6.67;6.07;;;8.40;1.00;;;;;;5028122;28;20183;-79
2022/12/21 01:37:56;;;;;;;7.37;6.63;;;8.40;1.00;;;;;;5028018;28;21009;-80
2022/12/21 01:40:22;;;;;;;8.07;7.27;;;8.30;1.00;;;;;;5029487;28;20200;-79
2022/12/21 01:42:47;;;;;;;7.60;6.90;;;8.30;14.60;;;;;;5029587;28;20189;-80
2022/12/21 01:45:19;;;;;;;7.77;7.07;;;8.30;99.90;;;;;;5029122;28;20187;-79
2022/12/21 01:47:56;;;;;;;8.30;7.37;;;8.20;99.90;;;;;;5028549;28;20266;-77
2022/12/21 01:50:37;;;;;;;7.70;7.10;;;8.30;99.90;;;;;;5027551;28;20182;-79
2022/12/21 01:53:08;;;;;;;8.40;7.60;;;8.40;1.00;;;;;;5028773;28;20313;-80
2022/12/21 01:55:35;;;;;;;8.40;7.60;;;8.40;1.00;;;;;;5028597;28;20183;-78
2022/12/21 01:58:05;;;;;;;8.50;7.80;;;8.40;99.90;;;;;;5028179;28;20190;-80
2022/12/21 02:00:30;;;;;;;8.70;7.90;;;8.30;99.90;;;;;;5027128;28;20218;-80
2022/12/21 02:02:59;;;;;;;9.40;7.83;;;8.30;1.00;;;;;;5028028;28;20202;-80
2022/12/21 02:05:38;;;;;;;9.30;8.40;;;8.20;99.90;;;;;;5028995;28;20199;-80
2022/12/21 02:08:04;;;;;;;9.13;8.23;;;8.30;1.00;;;;;;5029202;28;20205;-77
2022/12/21 02:10:30;;;;;;;8.90;8.10;;;8.30;1.00;;;;;;5028629;28;20244;-78
2022/12/21 02:13:06;;;;;;;9.87;8.87;;;8.30;1.00;;;;;;5027760;28;20203;-79
2022/12/21 02:16:00;;;;;;;8.87;8.07;;;8.30;99.90;;;;;;5027023;28;20673;-79
2022/12/21 02:19:02;;;;;;;9.50;8.70;;;8.30;99.90;;;;;;5027500;28;20183;-78
2022/12/21 02:21:30;;;;;;;10.20;9.20;;;8.30;99.90;;;;;;5028672;28;21125;-80
2022/12/21 02:24:33;;;;;;;10.33;9.33;;;8.30;99.90;;;;;;5028093;28;20202;-79
2022/12/21 02:27:35;;;;;;;10.43;9.50;;;8.30;99.90;;;;;;5027719;28;20206;-80
2022/12/21 02:30:15;;;;;;;10.90;9.90;;;8.30;44.20;;;;;;5027377;28;20258;-79
2022/12/21 02:33:06;;;;;;;11.10;10.10;;;8.40;1.00;;;;;;5028484;28;20171;-78
2022/12/21 02:35:54;;;;;;;12.30;11.10;;;8.40;1.00;;;;;;5028437;28;21004;-80
2022/12/21 02:38:50;;;;;;;11.60;10.40;;;8.40;1.00;;;;;;5026941;28;21193;-79
2022/12/21 02:41:43;;;;;;;12.90;11.60;;;8.30;1.00;;;;;;5026220;28;20273;-80
2022/12/21 02:44:38;;;;;;;12.23;11.03;;;8.50;1.00;;;;;;5027098;28;20203;-80
2022/12/21 02:47:24;;;;;;;12.53;11.33;;;8.30;1.00;;;;;;5027116;28;20210;-80
2022/12/21 02:50:14;;;;;;;12.17;11.03;;;8.20;1.00;;;;;;5026928;28;20190;-79
2022/12/21 02:52:53;;;;;;;13.40;12.10;;;8.20;1.00;;;;;;5016252;28;20195;-79
2022/12/21 02:55:19;;;;;;;14.40;13.03;;;8.20;1.00;;;;;;5026952;28;20183;-81
2022/12/21 02:57:45;;;;;;;14.17;12.77;;;8.20;1.00;;;;;;5027236;28;20552;-81
2022/12/21 03:00:14;;;;;;;14.03;12.70;;;8.10;1.00;;;;;;5027221;28;20229;-78
2022/12/21 03:02:49;;;;;;;13.97;12.57;;;8.10;1.00;;;;;;5025501;28;20286;-78
2022/12/21 03:05:27;;;;;;;14.70;13.30;;;8.10;1.00;;;;;;5027090;28;20700;-79
2022/12/21 03:07:59;;;;;;;15.03;13.63;;;8.10;1.00;;;;;;5026928;28;20205;-79
2022/12/21 03:10:46;;;;;;;14.57;13.27;;;8.10;1.00;;;;;;5027080;28;20175;-79
2022/12/21 03:13:19;;;;;;;15.17;13.60;;;8.00;1.00;;;;;;5026758;28;20202;-79
2022/12/21 03:16:10;;;;;;;15.53;13.97;;;8.10;98.90;;;;;;5026889;28;20309;-78
2022/12/21 03:18:51;;;;;;;15.33;13.83;;;8.00;81.90;;;;;;5026309;28;20179;-80
2022/12/21 03:21:25;;;;;;;15.63;14.03;;;8.00;99.90;;;;;;5026234;28;20182;-79
2022/12/21 03:24:01;;;;;;;17.73;15.80;;;8.10;99.90;;;;;;5026814;28;20233;-79
2022/12/21 03:26:51;;;;;;;16.70;15.10;;;8.00;90.40;;;;;;5026333;28;20214;-78
2022/12/21 03:29:20;;;;;;;16.07;14.37;;;8.00;85.00;;;;;;5029161;28;21033;-79
2022/12/21 03:31:52;;;;;;;17.03;15.27;;;8.00;71.00;;;;;;5029609;28;20179;-79
2022/12/21 03:34:25;;;;;;;16.57;14.97;;;7.90;88.00;;;;;;5029350;28;20199;-79
2022/12/21 03:37:09;;;;;;;17.10;15.50;;;8.00;99.90;;;;;;5029850;28;20193;-81
2022/12/21 03:39:39;;;;;;;17.03;15.20;;;7.90;99.90;;;;;;5029783;28;20223;-79
2022/12/21 03:42:16;;;;;;;16.93;15.30;;;7.90;99.90;;;;;;5029064;28;20258;-79
2022/12/21 03:44:48;;;;;;;17.63;15.73;;;7.90;99.90;;;;;;5030016;28;20230;-80
2022/12/21 03:47:19;;;;;;;17.90;16.07;;;7.90;99.90;;;;;;5027938;28;20214;-79
2022/12/21 03:49:49;;;;;;;18.00;16.20;;;8.00;99.90;;;;;;5027965;28;20174;-79
2022/12/21 03:52:18;;;;;;;16.50;14.80;;;7.90;99.90;;;;;;5030346;28;20202;-78
2022/12/21 03:54:56;;;;;;;18.00;16.23;;;7.90;99.90;;;;;;5029224;28;20202;-79
2022/12/21 03:57:23;;;;;;;17.37;15.57;;;7.90;99.90;;;;;;5030437;28;20206;-80
2022/12/21 03:59:52;;;;;;;17.17;15.50;;;7.80;99.90;;;;;;5020091;28;20201;-80
2022/12/21 04:02:44;;;;;;;17.90;16.20;;;7.80;99.90;;;;;;5030523;28;20597;-81
2022/12/21 04:05:35;;;;;;;18.57;16.60;;;7.80;1.00;;;;;;5028187;28;20179;-80
2022/12/21 04:08:01;;;;;;;17.23;15.10;;;7.80;1.00;;;;;;5029417;28;20199;-79
2022/12/21 04:10:27;;;;;;;19.23;17.13;;;7.80;1.00;;;;;;5029619;28;20210;-79
2022/12/21 04:12:53;;;;;;;17.00;15.30;;;7.80;1.00;;;;;;5032878;28;20202;-80
2022/12/21 04:15:23;;;;;;;19.27;17.37;;;7.70;1.00;;;;;;5028639;28;20187;-80
2022/12/21 04:17:50;;;;;;;19.10;17.20;;;7.80;1.00;;;;;;5028193;28;20175;-80
2022/12/21 04:20:21;;;;;;;17.83;16.03;;;7.70;1.00;;;;;;5030277;28;20802;-79
2022/12/21 04:28:26;;;;;;;17.43;15.57;;;7.70;1.00;;;;;;5030186;28;20209;-80
2022/12/21 04:30:51;;;;;;;17.27;15.47;;;7.70;1.00;;;;;;5029818;28;20198;-77
2022/12/21 04:33:19;;;;;;;18.13;16.23;;;7.70;1.00;;;;;;5029663;28;20198;-78
2022/12/21 04:38:32;;;;;;;18.43;16.53;;;7.60;1.00;;;;;;5029589;28;20194;-78
2022/12/21 04:40:58;;;;;;;18.23;16.43;;;7.60;1.00;;;;;;5027313;28;20187;-77
2022/12/21 04:43:24;;;;;;;18.83;16.93;;;7.60;30.00;;;;;;5026888;28;20256;-80
2022/12/21 04:46:01;;;;;;;17.67;15.87;;;7.60;99.90;;;;;;5029206;28;20281;-79
2022/12/21 04:48:27;;;;;;;17.37;15.57;;;7.60;99.90;;;;;;5028934;28;20234;-79
2022/12/21 04:50:52;;;;;;;17.87;16.07;;;7.60;99.90;;;;;;5028951;28;20217;-80
2022/12/21 04:53:18;;;;;;;17.80;15.90;;;7.60;99.90;;;;;;5027569;28;20233;-80
2022/12/21 04:55:45;;;;;;;17.17;15.47;;;7.60;1.00;;;;;;5028501;28;20179;-78
2022/12/21 04:58:11;;;;;;;17.10;15.30;;;7.60;1.00;;;;;;5028655;28;20194;-81
2022/12/21 05:00:36;;;;;;;17.93;16.03;;;7.60;1.00;;;;;;5029215;28;20619;-79
2022/12/21 05:03:02;;;;;;;17.53;15.87;;;7.60;1.00;;;;;;5027398;28;20206;-80
2022/12/21 05:05:28;;;;;;;18.47;16.67;;;7.60;1.00;;;;;;5027726;28;20557;-81
2022/12/21 05:07:54;;;;;;;18.80;16.80;;;7.70;2.50;;;;;;5027240;28;20252;-79
2022/12/21 05:10:19;;;;;;;18.07;16.27;;;7.60;1.00;;;;;;5029031;28;20182;-80
2022/12/21 05:12:45;;;;;;;18.63;16.73;;;7.60;1.00;;;;;;5028336;28;20187;-79
2022/12/21 05:15:13;;;;;;;19.23;17.20;;;7.60;1.00;;;;;;5028806;28;20191;-80
2022/12/21 05:17:41;;;;;;;19.80;17.80;;;7.60;1.00;;;;;;5026763;28;20190;-80
2022/12/21 05:20:07;;;;;;;19.30;17.40;;;7.60;1.00;;;;;;5028654;28;20198;-78
2022/12/21 05:22:32;;;;;;;19.50;17.60;;;7.60;1.00;;;;;;5026751;28;20187;-78
2022/12/21 05:24:58;;;;;;;19.30;17.40;;;7.60;1.00;;;;;;5028091;28;20265;-77
2022/12/21 05:27:24;;;;;;;20.20;18.17;;;7.70;1.00;;;;;;5027123;28;20215;-78
2022/12/21 05:29:49;;;;;;;19.57;17.57;;;7.60;1.00;;;;;;5027618;28;20274;-78
2022/12/21 05:32:15;;;;;;;19.47;17.47;;;7.70;1.00;;;;;;5028521;28;20242;-78
2022/12/21 05:34:41;;;;;;;18.53;16.63;;;7.60;1.00;;;;;;5027800;28;20213;-78
2022/12/21 05:37:07;;;;;;;19.77;16.90;;;7.60;1.00;;;;;;5026724;28;20187;-80
2022/12/21 05:39:34;;;;;;;18.57;16.67;;;7.60;1.00;;;;;;5028841;28;20257;-78
2022/12/21 05:42:01;;;;;;;18.90;16.93;;;7.60;1.00;;;;;;5028004;28;20196;-79
2022/12/21 05:44:27;;;;;;;19.73;17.63;;;7.60;1.00;;;;;;5028087;28;20225;-79
2022/12/21 05:46:52;;;;;;;18.47;16.67;;;7.60;46.80;;;;;;5028207;28;20210;-80
2022/12/21 05:49:18;;;;;;;17.73;16.03;;;7.60;99.90;;;;;;5027684;28;20565;-80
2022/12/21 05:51:47;;;;;;;19.13;17.23;;;7.60;99.90;;;;;;5027642;28;20637;-79
2022/12/21 05:54:13;;;;;;;18.23;16.43;;;7.60;99.90;;;;;;5027501;28;20223;-80
2022/12/21 05:56:38;;;;;;;19.03;17.13;;;7.60;99.90;;;;;;5026684;28;20286;-79
2022/12/21 05:59:04;;;;;;;18.70;16.70;;;7.50;99.90;;;;;;5028685;28;20183;-80
2022/12/21 06:01:30;;;;;;;19.23;17.20;;;7.50;1.00;;;;;;5028156;28;20179;-79
2022/12/21 06:03:55;;;;;;;18.97;16.97;;;7.50;1.00;;;;;;5028247;28;20203;-81
2022/12/21 06:06:21;;;;;;;18.47;16.57;;;7.50;1.00;;;;;;5026651;28;20195;-79
2022/12/21 06:08:46;;;;;;;18.73;16.83;;;7.50;1.00;;;;;;5027661;28;20620;-79
2022/12/21 06:11:15;;;;;;;19.70;17.70;;;7.50;1.00;;;;;;5026688;28;20179;-77
2022/12/21 06:13:41;;;;;;;17.80;16.00;;;7.50;5.20;;;;;;5026428;28;21096;-80
2022/12/21 06:16:16;;;;;;;18.37;16.47;;;7.50;1.00;;;;;;5026411;28;20179;-80
2022/12/21 06:18:41;;;;;;;19.73;17.63;;;7.50;99.90;;;;;;5028328;28;20182;-79
2022/12/21 06:21:09;;;;;;;18.70;16.80;;;7.50;99.90;;;;;;5028201;28;20209;-79
2022/12/21 06:23:35;;;;;;;19.07;17.10;;;7.50;99.90;;;;;;5028132;28;20614;-77
2022/12/21 06:26:02;;;;;;;19.47;17.47;;;7.60;1.00;;;;;;5026683;28;20194;-78
2022/12/21 06:28:28;;;;;;;19.20;17.30;;;7.60;1.00;;;;;;5027947;28;20206;-80
2022/12/21 06:31:00;;;;;;;20.10;18.10;;;7.60;1.00;;;;;;5027633;28;20345;-80
2022/12/21 06:33:26;;;;;;;19.63;17.60;;;7.50;1.00;;;;;;5026380;28;20265;-78
2022/12/21 06:35:57;;;;;;;18.43;16.53;;;7.60;99.90;;;;;;5027566;28;20178;-78
2022/12/21 06:38:26;;;;;;;18.33;16.53;;;7.60;99.90;;;;;;5027213;28;20186;-79
2022/12/21 06:40:56;;;;;;;20.40;18.30;;;7.60;1.00;;;;;;5027345;28;20194;-79
2022/12/21 06:43:26;;;;;;;20.13;18.13;;;7.60;1.00;;;;;;5027620;28;20199;-79
2022/12/21 06:45:53;;;;;;;20.10;18.00;;;7.60;52.50;;;;;;5027138;28;21029;-79
2022/12/21 06:48:19;;;;;;;18.73;16.83;;;7.60;99.90;;;;;;5025650;28;20233;-79
2022/12/21 06:50:44;;;;;;;18.23;16.37;;;7.60;99.90;;;;;;5027251;28;20629;-79
2022/12/21 06:53:10;;;;;;;19.13;17.13;;;7.60;99.90;;;;;;5027513;28;20238;-79
2022/12/21 06:55:36;;;;;;;19.17;17.20;;;7.60;99.90;;;;;;5025793;28;20186;-77
2022/12/21 06:58:01;;;;;;;18.93;16.93;;;7.50;99.90;;;;;;5027577;28;20198;-80
2022/12/21 07:00:27;;;;;;;18.60;16.70;;;7.50;1.00;;;;;;5027219;28;20230;-77
2022/12/21 07:02:52;;;;;;;17.97;16.07;;;7.60;80.80;;;;;;5026863;28;20215;-78
2022/12/21 07:05:18;;;;;;;17.83;16.03;;;7.60;1.00;;;;;;5029447;28;20337;-80
2022/12/21 07:07:43;;;;;;;18.17;16.27;;;7.50;99.90;;;;;;5030800;28;20206;-78
2022/12/21 07:10:09;;;;;;;16.83;15.17;;;7.50;99.90;;;;;;5030433;28;20366;-79
2022/12/21 07:12:34;;;;;;;17.60;15.90;;;7.50;99.90;;;;;;5030919;28;20428;-80
2022/12/21 07:15:00;;;;;;;18.20;16.30;;;7.50;99.90;;;;;;5031009;28;20217;-79
2022/12/21 07:17:27;;;;;;;17.07;15.27;;;7.40;99.90;;;;;;5030742;28;20559;-78
2022/12/21 07:19:52;;;;;;;15.80;14.23;;;7.40;99.90;;;;;;5030834;28;20210;-78
2022/12/21 07:22:18;;;;;;;17.97;16.07;;;7.40;99.90;;;;;;5029654;28;20182;-80
2022/12/21 07:24:44;;;;;;;17.10;15.40;;;7.40;1.00;;;;;;5031279;28;20289;-78
2022/12/21 07:27:09;;;;;;;17.13;15.30;;;7.40;1.00;;;;;;5030737;28;20203;-80
2022/12/21 07:29:36;;;;;;;17.23;15.53;;;7.40;1.00;;;;;;5029168;28;20194;-80
2022/12/21 07:32:02;;;;;;;17.87;16.07;;;7.40;93.00;;;;;;5035174;28;20199;-80
2022/12/21 07:34:27;;;;;;;17.33;15.43;;;7.40;99.90;;;;;;5037680;28;20218;-80
2022/12/21 07:36:53;;;;;;;18.70;16.70;;;7.40;99.90;;;;;;5036124;28;20183;-81
2022/12/21 07:39:18;;;;;;;20.03;17.93;;;7.50;1.00;;;;;;5038450;28;20195;-80
2022/12/21 07:41:44;;;;;;;20.17;18.07;;;7.50;99.90;;;;;;5038189;28;20190;-81
2022/12/21 07:44:09;;;;;;;20.67;18.57;;;7.60;99.90;;;;;;5036235;28;20708;-79
2022/12/21 07:46:35;;;;;;;20.33;18.13;;;7.60;99.90;;;;;;5036636;28;20240;-79
2022/12/21 07:49:01;;;;;;;20.27;18.27;;;7.60;99.90;;;;;;5034239;28;20258;-80
2022/12/21 07:51:27;;;;;;;20.07;17.87;;;7.60;99.90;;;;;;5033957;28;20187;-80
2022/12/21 07:53:52;;;;;;;22.63;18.60;;;7.60;99.90;;;;;;5035854;28;20586;-81
2022/12/21 07:56:18;;;;;;;20.90;18.70;;;7.60;99.90;;;;;;5033933;28;20187;-80
2022/12/21 07:58:45;;;;;;;20.00;17.83;;;7.70;99.90;;;;;;5034289;28;20183;-80
2022/12/21 08:01:13;;;;;;;20.00;17.90;;;7.60;99.90;;;;;;5036237;28;20187;-80
2022/12/21 08:03:41;;;;;;;20.10;18.00;;;7.40;99.90;;;;;;5030438;28;20207;-80
2022/12/21 08:06:07;;;;;;;19.87;17.80;;;7.60;99.90;;;;;;5035494;28;20183;-80
2022/12/21 08:08:34;;;;;;;19.37;17.43;;;7.60;95.90;;;;;;5030497;28;20213;-81
2022/12/21 08:10:59;;;;;;;21.73;19.60;;;7.50;1.00;;;;;;5036409;28;20237;-80
2022/12/21 08:13:25;;;;;;;21.77;19.57;;;7.50;1.00;;;;;;5035294;28;20199;-80
2022/12/21 08:16:01;;;;;;;21.50;19.37;;;7.50;99.90;;;;;;5035482;28;20214;-80
2022/12/21 08:18:28;;;;;;;19.50;17.40;;;7.50;99.90;;;;;;5037025;28;20197;-79
2022/12/21 08:20:55;;;;;;;20.13;18.10;;;7.40;99.90;;;;;;5033115;28;20282;-80
2022/12/21 08:23:21;;;;;;;18.63;16.63;;;7.40;99.90;;;;;;5034775;28;20238;-80
2022/12/21 08:25:47;;;;;;;19.63;17.63;;;7.40;1.00;;;;;;5033137;28;20197;-81
2022/12/21 08:28:12;;;;;;;17.57;15.73;;;7.30;1.00;;;;;;5036376;28;20203;-80
2022/12/21 08:30:39;;;;;;;18.83;16.90;;;7.30;1.00;;;;;;5030831;28;21147;-80
2022/12/21 08:33:05;;;;;;;19.50;17.57;;;7.30;1.00;;;;;;5035010;28;20207;-80
2022/12/21 08:35:30;;;;;;;30.97;26.57;;;7.30;1.00;;;;;;5031753;28;20225;-79
2022/12/21 08:37:56;;;;;;;32.37;26.10;;;7.30;1.00;;;;;;5033076;28;20656;-79
2022/12/21 08:40:22;;;;;;;44.30;39.47;;;7.30;1.00;;;;;;5033252;28;20187;-79
2022/12/21 08:42:47;;;;;;;28.07;25.07;;;7.30;1.00;;;;;;5032015;28;20179;-79
2022/12/21 08:45:13;;;;;;;31.37;27.57;;;7.30;99.90;;;;;;5033960;28;20721;-80
2022/12/21 08:47:39;;;;;;;24.60;22.03;;;7.30;97.70;;;;;;5031306;28;20641;-79
2022/12/21 08:50:06;;;;;;;21.33;19.13;;;7.40;99.90;;;;;;5033046;28;20238;-80
2022/12/21 08:52:32;;;;;;;28.77;26.00;;;7.40;1.00;;;;;;5032422;28;20222;-80
2022/12/21 08:54:57;;;;;;;27.60;24.87;;;7.40;1.00;;;;;;5031819;28;20183;-79
2022/12/21 08:57:23;;;;;;;25.00;22.60;;;7.40;1.00;;;;;;5031092;28;20297;-79
2022/12/21 08:59:49;;;;;;;21.90;19.70;;;7.40;99.90;;;;;;5030032;28;20179;-80
2022/12/21 09:02:15;;;;;;;19.40;17.60;;;7.50;99.90;;;;;;5031048;28;20182;-80
2022/12/21 09:04:41;;;;;;;18.90;17.00;;;7.50;99.90;;;;;;5031175;28;20222;-78
2022/12/21 09:07:06;;;;;;;18.27;16.47;;;7.70;1.00;;;;;;5030670;28;20576;-79
2022/12/21 09:09:33;;;;;;;18.43;16.53;;;7.70;1.00;;;;;;5030679;28;20299;-80
2022/12/21 09:11:59;;;;;;;18.37;16.47;;;7.80;1.00;;;;;;5028485;28;20164;-79
2022/12/21 09:14:25;;;;;;;17.80;16.00;;;7.80;1.00;;;;;;5028989;28;20209;-78
2022/12/21 09:16:51;;;;;;;17.40;15.70;;;7.70;99.90;;;;;;5029008;28;20175;-78
2022/12/21 09:19:17;;;;;;;17.80;15.90;;;7.70;99.90;;;;;;5028766;28;20175;-79
2022/12/21 09:21:43;;;;;;;19.70;17.70;;;7.70;99.90;;;;;;5028333;28;20187;-78
2022/12/21 09:24:08;;;;;;;17.97;16.20;;;7.70;1.00;;;;;;5030988;28;20198;-79
2022/12/21 09:26:34;;;;;;;18.07;16.33;;;7.70;83.20;;;;;;5029755;28;20203;-78
2022/12/21 09:29:00;;;;;;;16.40;14.70;;;7.70;99.90;;;;;;5030242;28;20202;-81
2022/12/21 09:31:25;;;;;;;17.07;15.17;;;7.80;1.00;;;;;;5030966;28;20183;-79
2022/12/21 09:33:56;;;;;;;16.50;14.70;;;7.80;99.90;;;;;;5026818;28;20294;-81
2022/12/21 09:36:22;;;;;;;17.17;14.70;;;7.80;1.00;;;;;;5027780;28;20183;-80
2022/12/21 09:38:48;;;;;;;41.77;37.83;;;7.80;99.90;;;;;;5030267;28;20183;-80
2022/12/21 09:41:16;;;;;;;27.83;15.57;;;7.90;99.90;;;;;;5028457;28;20206;-80
2022/12/21 09:44:04;;;;;;;25.83;18.33;;;7.90;99.90;;;;;;5028136;28;20199;-79
2022/12/21 09:46:33;;;;;;;16.53;14.83;;;8.10;1.00;;;;;;5029952;28;20179;-82
2022/12/21 09:49:06;;;;;;;14.33;12.93;;;8.40;99.90;;;;;;5027620;28;20686;-80
2022/12/21 09:51:33;;;;;;;14.80;13.40;;;8.50;99.90;;;;;;5027139;28;20222;-81
2022/12/21 09:54:05;;;;;;;14.33;12.93;;;8.30;99.90;;;;;;5027970;28;20271;-79
2022/12/21 09:56:31;;;;;;;14.17;12.80;;;8.30;99.90;;;;;;5031354;28;20182;-80
2022/12/21 09:59:02;;;;;;;27.37;16.17;;;8.30;99.90;;;;;;5028522;28;20183;-80
2022/12/21 10:01:27;;;;;;;23.57;14.30;;;8.20;1.00;;;;;;5029537;28;20569;-79
2022/12/21 10:04:31;;;;;;;18.90;12.73;;;8.10;99.90;;;;;;5029872;28;20211;-79
2022/12/21 10:07:15;;;;;;;67.53;53.63;;;8.10;99.90;;;;;;5029292;28;20183;-82
2022/12/21 10:09:52;;;;;;;17.30;13.40;;;8.00;1.00;;;;;;5028898;28;20663;-81
2022/12/21 10:12:35;;;;;;;30.53;22.60;;;8.00;99.90;;;;;;5025307;28;20179;-80
2022/12/21 10:15:07;;;;;;;32.33;23.33;;;8.00;1.00;;;;;;5026828;28;20183;-80
2022/12/21 10:17:45;;;;;;;23.20;17.13;;;8.00;1.00;;;;;;5030379;28;20226;-79
2022/12/21 10:20:48;;;;;;;17.07;14.43;;;8.00;1.00;;;;;;5029782;28;20661;-80
2022/12/21 10:23:22;;;;;;;18.63;13.10;;;7.90;1.00;;;;;;5031011;28;20229;-80
2022/12/21 10:25:54;;;;;;;14.77;12.73;;;8.00;1.00;;;;;;5028637;28;20193;-79
2022/12/21 10:28:45;;;;;;;15.63;12.67;;;8.10;1.00;;;;;;5034556;28;20274;-80
2022/12/21 10:31:15;;;;;;;16.67;12.93;;;8.10;1.00;;;;;;5031442;28;20280;-81
2022/12/21 10:33:43;;;;;;;14.53;11.33;;;8.20;1.00;;;;;;5026751;28;20218;-81
2022/12/21 10:36:20;;;;;;;10.53;9.53;;;8.20;1.00;;;;;;5026521;28;20187;-80
2022/12/21 10:38:46;;;;;;;11.40;10.30;;;8.20;1.00;;;;;;5024152;28;20899;-82
2022/12/21 10:41:23;;;;;;;11.13;9.57;;;8.30;99.90;;;;;;5025155;28;20178;-81
2022/12/21 10:43:50;;;;;;;20.17;17.90;;;8.20;1.00;;;;;;5028112;28;20233;-79
2022/12/21 10:46:18;;;;;;;17.30;15.60;;;8.20;99.90;;;;;;5026108;28;20198;-82
2022/12/21 10:48:46;;;;;;;13.33;12.03;;;8.10;1.00;;;;;;5026809;28;20206;-78
2022/12/21 10:51:32;;;;;;;12.80;10.73;;;8.10;1.00;;;;;;5032708;28;20207;-78
2022/12/21 10:54:04;;;;;;;13.00;11.70;;;8.10;59.70;;;;;;5030256;28;20218;-78
2022/12/21 10:56:32;;;;;;;14.43;13.03;;;8.10;99.90;;;;;;5029076;28;20270;-78
2022/12/21 10:59:13;;;;;;;12.70;11.50;;;8.10;99.90;;;;;;5028998;28;21250;-78
2022/12/21 11:01:39;;;;;;;14.67;13.27;;;8.10;99.90;;;;;;5028733;28;20182;-77
2022/12/21 11:04:09;;;;;;;12.90;11.60;;;8.20;1.00;;;;;;5023626;28;20207;-77
2022/12/21 11:06:34;;;;;;;13.47;12.07;;;8.30;99.90;;;;;;5022888;28;20195;-79
2022/12/21 11:09:00;;;;;;;12.90;11.70;;;8.20;99.90;;;;;;5027938;28;20213;-78
2022/12/21 11:11:31;;;;;;;14.67;13.33;;;8.30;1.00;;;;;;5029111;28;20183;-77
2022/12/21 11:14:12;;;;;;;11.83;10.73;;;8.40;1.00;;;;;;5027076;28;20762;-78
2022/12/21 11:16:38;;;;;;;11.30;10.20;;;8.50;11.30;;;;;;5028434;28;20197;-78
2022/12/21 11:19:10;;;;;;;12.03;10.93;;;8.50;1.00;;;;;;5026091;28;20249;-78
2022/12/21 11:21:52;;;;;;;12.30;11.10;;;8.50;1.00;;;;;;5027876;28;20187;-78
2022/12/21 11:24:37;;;;;;;12.30;11.20;;;8.50;1.00;;;;;;5029253;28;20250;-77
2022/12/21 11:27:24;;;;;;;11.40;10.40;;;8.60;1.00;;;;;;5028837;28;20218;-78
2022/12/21 11:30:19;;;;;;;10.87;9.87;;;8.70;1.00;;;;;;5029233;28;20183;-78
2022/12/21 11:32:47;;;;;;;11.13;10.13;;;8.80;1.00;;;;;;5029762;28;20179;-76
2022/12/21 11:35:27;;;;;;;11.37;10.33;;;8.80;99.90;;;;;;5029188;28;20179;-78
2022/12/21 11:38:09;;;;;;;12.33;11.13;;;8.70;99.90;;;;;;5029300;28;20187;-78
2022/12/21 11:40:35;;;;;;;11.50;10.40;;;8.70;99.90;;;;;;5028859;28;20191;-78
2022/12/21 11:43:05;;;;;;;11.63;10.43;;;8.70;99.90;;;;;;5028031;28;20218;-79
2022/12/21 11:46:00;;;;;;;12.17;10.97;;;8.80;99.90;;;;;;5026764;28;20190;-78
2022/12/21 11:48:44;;;;;;;10.93;9.93;;;9.00;99.90;;;;;;5027374;28;20272;-77
2022/12/21 11:51:36;;;;;;;10.70;9.70;;;9.10;99.90;;;;;;5029428;28;20183;-78
2022/12/21 11:54:20;;;;;;;11.03;10.03;;;9.10;99.90;;;;;;5030499;28;20568;-79
2022/12/21 11:56:53;;;;;;;10.23;9.23;;;9.10;99.90;;;;;;5030520;28;20172;-81
2022/12/21 11:59:33;;;;;;;10.97;9.97;;;9.20;29.30;;;;;;5030657;28;20179;-80
2022/12/21 12:02:20;;;;;;;11.70;10.50;;;9.20;14.90;;;;;;5038524;28;20190;-79
2022/12/21 12:05:00;;;;;;;11.17;10.07;;;9.10;99.90;;;;;;5034176;28;20206;-78
2022/12/21 12:07:39;;;;;;;10.70;9.60;;;9.10;99.90;;;;;;5034589;28;20257;-76
2022/12/21 12:10:32;;;;;;;10.70;9.70;;;9.00;99.90;;;;;;5037310;28;20198;-79
2022/12/21 12:13:07;;;;;;;11.27;10.27;;;9.00;99.90;;;;;;5033648;28;20688;-78
2022/12/21 12:15:41;;;;;;;11.50;10.40;;;9.20;99.90;;;;;;5031268;28;20201;-79
2022/12/21 12:18:15;;;;;;;11.20;10.10;;;9.10;99.90;;;;;;5030860;28;20183;-78
2022/12/21 12:20:56;;;;;;;13.77;12.37;;;9.10;99.90;;;;;;5029810;28;20551;-79
2022/12/21 12:23:40;;;;;;;12.40;11.20;;;9.00;99.90;;;;;;5030805;28;20241;-79
2022/12/21 12:26:27;;;;;;;12.37;11.20;;;9.00;99.90;;;;;;5036816;28;20277;-79
2022/12/21 12:29:13;;;;;;;17.03;15.37;;;9.10;1.00;;;;;;5028659;28;20207;-76
2022/12/21 12:31:51;;;;;;;13.93;12.53;;;9.10;1.00;;;;;;5030826;28;20239;-79
2022/12/21 12:34:48;;;;;;;12.60;11.30;;;9.20;1.00;;;;;;5029831;28;20221;-79
2022/12/21 12:37:31;;;;;;;10.70;9.70;;;9.20;1.00;;;;;;5030081;28;20205;-77
2022/12/21 12:40:19;;;;;;;11.03;10.03;;;9.10;1.00;;;;;;5029009;28;20194;-80
2022/12/21 12:43:09;;;;;;;23.67;21.27;;;9.00;1.00;;;;;;5030850;28;20200;-79
2022/12/21 12:45:47;;;;;;;10.90;9.90;;;8.90;1.00;;;;;;5029699;28;20185;-79
2022/12/21 12:48:28;;;;;;;10.73;9.63;;;9.00;95.70;;;;;;5029136;28;20203;-79
2022/12/21 12:51:08;;;;;;;11.27;10.17;;;9.00;99.90;;;;;;5028528;28;20290;-80
2022/12/21 12:53:34;;;;;;;10.87;9.77;;;9.00;99.90;;;;;;5028113;28;20578;-80
2022/12/21 12:56:06;;;;;;;9.93;9.03;;;9.10;99.90;;;;;;5029003;28;20179;-80
2022/12/21 12:58:56;;;;;;;9.97;8.97;;;9.10;99.90;;;;;;5029269;28;20178;-80
2022/12/21 13:01:46;;;;;;;8.30;7.50;;;9.30;99.90;;;;;;5029221;28;20195;-82
2022/12/21 13:04:35;;;;;;;7.40;6.80;;;9.30;99.90;;;;;;5029936;28;20215;-78
2022/12/21 13:07:29;;;;;;;7.03;6.33;;;9.40;1.00;;;;;;5030826;28;20187;-79
2022/12/21 13:10:10;;;;;;;7.10;6.50;;;9.30;99.90;;;;;;5029825;28;20178;-79
2022/12/21 13:13:02;;;;;;;7.47;6.83;;;9.30;1.00;;;;;;5032066;28;20186;-79
2022/12/21 13:15:45;;;;;;;7.83;7.03;;;9.30;1.00;;;;;;5031019;28;20970;-80